sensor_id;sensor_type;location;lat;lon;timestamp;P1;durP1;ratioP1;P2;durP2;ratioP2
20758;SDS011;10539;53.686;9.158;2022-11-04T00:01:41;8.47;;;2.70;;
20758;SDS011;10539;53.686;9.158;2022-11-04T00:04:09;7.77;;;3.07;;
20758;SDS011;10539;53.686;9.158;2022-11-04T00:06:36;7.93;;;2.80;;
20758;SDS011;10539;53.686;9.158;2022-11-04T00:09:04;5.90;;;2.60;;
20758;SDS011;10539;53.686;9.158;2022-11-04T00:11:31;8.70;;;2.80;;
20758;SDS011;10539;53.686;9.158;2022-11-04T00:14:22;5.77;;;2.47;;
20758;SDS011;10539;53.686;9.158;2022-11-04T00:16:48;7.67;;;3.07;;
20758;SDS011;10539;53.686;9.158;2022-11-04T00:19:32;8.70;;;3.60;;
20758;SDS011;10539;53.686;9.158;2022-11-04T00:22:17;7.87;;;3.00;;
20758;SDS011;10539;53.686;9.158;2022-11-04T00:25:02;8.40;;;3.40;;
20758;SDS011;10539;53.686;9.158;2022-11-04T00:27:46;7.93;;;3.50;;
20758;SDS011;10539;53.686;9.158;2022-11-04T00:30:31;5.03;;;2.80;;
20758;SDS011;10539;53.686;9.158;2022-11-04T00:32:56;8.00;;;2.73;;
20758;SDS011;10539;53.686;9.158;2022-11-04T00:35:46;7.13;;;2.63;;
20758;SDS011;10539;53.686;9.158;2022-11-04T00:38:14;5.50;;;2.57;;
20758;SDS011;10539;53.686;9.158;2022-11-04T00:40:40;7.97;;;3.23;;
20758;SDS011;10539;53.686;9.158;2022-11-04T00:43:06;7.03;;;2.43;;
20758;SDS011;10539;53.686;9.158;2022-11-04T00:45:31;5.03;;;2.47;;
20758;SDS011;10539;53.686;9.158;2022-11-04T00:47:57;5.77;;;2.60;;
20758;SDS011;10539;53.686;9.158;2022-11-04T00:50:23;7.77;;;2.77;;
20758;SDS011;10539;53.686;9.158;2022-11-04T00:52:49;6.90;;;3.07;;
20758;SDS011;10539;53.686;9.158;2022-11-04T00:55:15;10.37;;;3.90;;
20758;SDS011;10539;53.686;9.158;2022-11-04T00:57:40;6.50;;;3.60;;
20758;SDS011;10539;53.686;9.158;2022-11-04T01:00:06;9.37;;;3.23;;
20758;SDS011;10539;53.686;9.158;2022-11-04T01:02:32;6.30;;;3.30;;
20758;SDS011;10539;53.686;9.158;2022-11-04T01:04:58;11.13;;;4.03;;
20758;SDS011;10539;53.686;9.158;2022-11-04T01:07:24;5.70;;;3.80;;
20758;SDS011;10539;53.686;9.158;2022-11-04T01:09:50;8.10;;;3.60;;
20758;SDS011;10539;53.686;9.158;2022-11-04T01:12:16;9.53;;;3.43;;
20758;SDS011;10539;53.686;9.158;2022-11-04T01:14:41;6.03;;;3.80;;
20758;SDS011;10539;53.686;9.158;2022-11-04T01:17:07;8.37;;;3.40;;
20758;SDS011;10539;53.686;9.158;2022-11-04T01:19:33;6.43;;;3.23;;
20758;SDS011;10539;53.686;9.158;2022-11-04T01:21:59;8.13;;;3.80;;
20758;SDS011;10539;53.686;9.158;2022-11-04T01:24:25;6.90;;;3.50;;
20758;SDS011;10539;53.686;9.158;2022-11-04T01:26:50;7.77;;;3.70;;
20758;SDS011;10539;53.686;9.158;2022-11-04T01:29:16;7.97;;;3.63;;
20758;SDS011;10539;53.686;9.158;2022-11-04T01:31:42;8.80;;;3.97;;
20758;SDS011;10539;53.686;9.158;2022-11-04T01:34:08;5.50;;;3.57;;
20758;SDS011;10539;53.686;9.158;2022-11-04T01:36:34;6.87;;;3.40;;
20758;SDS011;10539;53.686;9.158;2022-11-04T01:38:59;12.10;;;4.30;;
20758;SDS011;10539;53.686;9.158;2022-11-04T01:41:30;9.97;;;4.13;;
20758;SDS011;10539;53.686;9.158;2022-11-04T01:44:01;11.07;;;4.40;;
20758;SDS011;10539;53.686;9.158;2022-11-04T01:46:37;8.83;;;4.60;;
20758;SDS011;10539;53.686;9.158;2022-11-04T01:52:02;9.13;;;4.40;;
20758;SDS011;10539;53.686;9.158;2022-11-04T01:54:33;9.50;;;5.03;;
20758;SDS011;10539;53.686;9.158;2022-11-04T01:57:01;13.93;;;4.70;;
20758;SDS011;10539;53.686;9.158;2022-11-04T01:59:32;7.73;;;4.47;;
20758;SDS011;10539;53.686;9.158;2022-11-04T02:02:01;8.73;;;5.00;;
20758;SDS011;10539;53.686;9.158;2022-11-04T02:04:28;10.90;;;4.47;;
20758;SDS011;10539;53.686;9.158;2022-11-04T02:06:58;9.07;;;5.27;;
20758;SDS011;10539;53.686;9.158;2022-11-04T02:09:29;8.80;;;4.50;;
20758;SDS011;10539;53.686;9.158;2022-11-04T02:11:56;7.80;;;4.40;;
20758;SDS011;10539;53.686;9.158;2022-11-04T02:14:41;11.43;;;5.33;;
20758;SDS011;10539;53.686;9.158;2022-11-04T02:19:47;10.70;;;4.87;;
20758;SDS011;10539;53.686;9.158;2022-11-04T02:30:30;10.17;;;5.37;;
20758;SDS011;10539;53.686;9.158;2022-11-04T02:44:26;14.03;;;5.73;;
20758;SDS011;10539;53.686;9.158;2022-11-04T02:49:13;14.40;;;5.50;;
20758;SDS011;10539;53.686;9.158;2022-11-04T02:52:09;8.27;;;5.03;;
20758;SDS011;10539;53.686;9.158;2022-11-04T02:54:45;8.50;;;5.17;;
20758;SDS011;10539;53.686;9.158;2022-11-04T02:57:24;10.23;;;5.73;;
20758;SDS011;10539;53.686;9.158;2022-11-04T03:00:01;9.43;;;5.37;;
20758;SDS011;10539;53.686;9.158;2022-11-04T03:02:32;10.30;;;6.07;;
20758;SDS011;10539;53.686;9.158;2022-11-04T03:05:02;9.80;;;6.30;;
20758;SDS011;10539;53.686;9.158;2022-11-04T03:07:31;10.87;;;5.63;;
20758;SDS011;10539;53.686;9.158;2022-11-04T03:10:07;8.73;;;5.87;;
20758;SDS011;10539;53.686;9.158;2022-11-04T03:12:47;9.97;;;5.53;;
20758;SDS011;10539;53.686;9.158;2022-11-04T03:15:19;13.23;;;5.20;;
20758;SDS011;10539;53.686;9.158;2022-11-04T03:17:49;9.20;;;5.33;;
20758;SDS011;10539;53.686;9.158;2022-11-04T03:20:20;10.07;;;5.87;;
20758;SDS011;10539;53.686;9.158;2022-11-04T03:22:50;11.73;;;6.23;;
20758;SDS011;10539;53.686;9.158;2022-11-04T03:25:19;9.87;;;5.87;;
20758;SDS011;10539;53.686;9.158;2022-11-04T03:27:53;9.57;;;6.07;;
20758;SDS011;10539;53.686;9.158;2022-11-04T03:30:22;9.70;;;6.53;;
20758;SDS011;10539;53.686;9.158;2022-11-04T03:33:02;10.43;;;5.97;;
20758;SDS011;10539;53.686;9.158;2022-11-04T03:35:36;10.77;;;6.37;;
20758;SDS011;10539;53.686;9.158;2022-11-04T03:38:02;7.30;;;4.90;;
20758;SDS011;10539;53.686;9.158;2022-11-04T03:40:28;7.87;;;5.33;;
20758;SDS011;10539;53.686;9.158;2022-11-04T03:45:21;10.77;;;5.80;;
20758;SDS011;10539;53.686;9.158;2022-11-04T03:47:48;7.97;;;5.37;;
20758;SDS011;10539;53.686;9.158;2022-11-04T03:50:31;9.57;;;4.43;;
20758;SDS011;10539;53.686;9.158;2022-11-04T03:53:18;7.00;;;4.53;;
20758;SDS011;10539;53.686;9.158;2022-11-04T04:06:27;4.87;;;2.23;;
20758;SDS011;10539;53.686;9.158;2022-11-04T04:08:59;2.90;;;1.83;;
20758;SDS011;10539;53.686;9.158;2022-11-04T04:14:50;1.60;;;1.30;;
20758;SDS011;10539;53.686;9.158;2022-11-04T04:17:20;3.07;;;1.40;;
20758;SDS011;10539;53.686;9.158;2022-11-04T04:20:00;2.03;;;1.20;;
20758;SDS011;10539;53.686;9.158;2022-11-04T04:22:30;2.77;;;1.00;;
20758;SDS011;10539;53.686;9.158;2022-11-04T04:25:01;1.73;;;0.90;;
20758;SDS011;10539;53.686;9.158;2022-11-04T04:27:49;1.97;;;0.90;;
20758;SDS011;10539;53.686;9.158;2022-11-04T04:30:17;2.30;;;0.90;;
20758;SDS011;10539;53.686;9.158;2022-11-04T04:32:47;0.90;;;0.50;;
20758;SDS011;10539;53.686;9.158;2022-11-04T04:35:18;1.03;;;0.50;;
20758;SDS011;10539;53.686;9.158;2022-11-04T04:38:07;1.53;;;0.60;;
20758;SDS011;10539;53.686;9.158;2022-11-04T04:41:01;1.23;;;0.60;;
20758;SDS011;10539;53.686;9.158;2022-11-04T04:43:49;5.07;;;0.50;;
20758;SDS011;10539;53.686;9.158;2022-11-04T04:46:34;1.23;;;0.50;;
20758;SDS011;10539;53.686;9.158;2022-11-04T04:49:06;1.33;;;0.50;;
20758;SDS011;10539;53.686;9.158;2022-11-04T04:51:33;1.73;;;0.70;;
20758;SDS011;10539;53.686;9.158;2022-11-04T04:54:03;1.20;;;0.60;;
20758;SDS011;10539;53.686;9.158;2022-11-04T04:56:28;1.40;;;0.70;;
20758;SDS011;10539;53.686;9.158;2022-11-04T04:58:54;1.00;;;0.67;;
20758;SDS011;10539;53.686;9.158;2022-11-04T05:01:20;0.70;;;0.70;;
20758;SDS011;10539;53.686;9.158;2022-11-04T05:03:46;1.97;;;0.83;;
20758;SDS011;10539;53.686;9.158;2022-11-04T05:06:11;0.93;;;0.70;;
20758;SDS011;10539;53.686;9.158;2022-11-04T05:08:37;1.90;;;1.00;;
20758;SDS011;10539;53.686;9.158;2022-11-04T05:11:03;2.70;;;1.10;;
20758;SDS011;10539;53.686;9.158;2022-11-04T05:13:29;2.20;;;0.90;;
20758;SDS011;10539;53.686;9.158;2022-11-04T05:15:55;1.40;;;0.90;;
20758;SDS011;10539;53.686;9.158;2022-11-04T05:18:22;1.87;;;1.00;;
20758;SDS011;10539;53.686;9.158;2022-11-04T05:20:48;1.83;;;1.00;;
20758;SDS011;10539;53.686;9.158;2022-11-04T05:23:14;2.03;;;1.07;;
20758;SDS011;10539;53.686;9.158;2022-11-04T05:25:40;1.30;;;0.90;;
20758;SDS011;10539;53.686;9.158;2022-11-04T05:28:06;4.63;;;0.90;;
20758;SDS011;10539;53.686;9.158;2022-11-04T05:30:33;1.03;;;0.70;;
20758;SDS011;10539;53.686;9.158;2022-11-04T05:32:59;0.93;;;0.70;;
20758;SDS011;10539;53.686;9.158;2022-11-04T05:35:25;2.23;;;0.90;;
20758;SDS011;10539;53.686;9.158;2022-11-04T05:37:50;1.43;;;0.80;;
20758;SDS011;10539;53.686;9.158;2022-11-04T05:40:17;1.87;;;0.90;;
20758;SDS011;10539;53.686;9.158;2022-11-04T05:42:42;2.60;;;0.80;;
20758;SDS011;10539;53.686;9.158;2022-11-04T05:45:08;2.57;;;0.83;;
20758;SDS011;10539;53.686;9.158;2022-11-04T05:47:34;1.03;;;0.70;;
20758;SDS011;10539;53.686;9.158;2022-11-04T05:49:59;0.97;;;0.70;;
20758;SDS011;10539;53.686;9.158;2022-11-04T05:52:25;3.80;;;1.13;;
20758;SDS011;10539;53.686;9.158;2022-11-04T05:54:51;2.60;;;1.00;;
20758;SDS011;10539;53.686;9.158;2022-11-04T05:57:17;1.40;;;0.90;;
20758;SDS011;10539;53.686;9.158;2022-11-04T05:59:44;1.87;;;1.03;;
20758;SDS011;10539;53.686;9.158;2022-11-04T06:02:09;1.73;;;0.77;;
20758;SDS011;10539;53.686;9.158;2022-11-04T06:04:35;2.87;;;0.80;;
20758;SDS011;10539;53.686;9.158;2022-11-04T06:07:01;2.53;;;0.80;;
20758;SDS011;10539;53.686;9.158;2022-11-04T06:09:27;1.10;;;0.97;;
20758;SDS011;10539;53.686;9.158;2022-11-04T06:12:05;1.20;;;0.90;;
20758;SDS011;10539;53.686;9.158;2022-11-04T06:14:39;3.83;;;1.10;;
20758;SDS011;10539;53.686;9.158;2022-11-04T06:17:06;3.30;;;1.10;;
20758;SDS011;10539;53.686;9.158;2022-11-04T06:19:32;5.90;;;1.37;;
20758;SDS011;10539;53.686;9.158;2022-11-04T06:21:58;3.63;;;1.30;;
20758;SDS011;10539;53.686;9.158;2022-11-04T06:24:24;5.10;;;1.30;;
20758;SDS011;10539;53.686;9.158;2022-11-04T06:26:50;1.57;;;1.20;;
20758;SDS011;10539;53.686;9.158;2022-11-04T06:29:16;1.43;;;1.00;;
20758;SDS011;10539;53.686;9.158;2022-11-04T06:31:42;2.10;;;1.30;;
20758;SDS011;10539;53.686;9.158;2022-11-04T06:34:07;3.53;;;1.17;;
20758;SDS011;10539;53.686;9.158;2022-11-04T06:36:33;2.50;;;1.30;;
20758;SDS011;10539;53.686;9.158;2022-11-04T06:38:59;2.00;;;1.10;;
20758;SDS011;10539;53.686;9.158;2022-11-04T06:41:24;1.30;;;1.07;;
20758;SDS011;10539;53.686;9.158;2022-11-04T06:43:50;2.20;;;1.13;;
20758;SDS011;10539;53.686;9.158;2022-11-04T06:46:23;2.03;;;0.97;;
20758;SDS011;10539;53.686;9.158;2022-11-04T06:49:00;2.03;;;1.20;;
20758;SDS011;10539;53.686;9.158;2022-11-04T06:51:26;2.37;;;1.27;;
20758;SDS011;10539;53.686;9.158;2022-11-04T06:53:51;2.03;;;1.30;;
20758;SDS011;10539;53.686;9.158;2022-11-04T06:56:17;1.50;;;1.10;;
20758;SDS011;10539;53.686;9.158;2022-11-04T06:58:45;3.13;;;1.57;;
20758;SDS011;10539;53.686;9.158;2022-11-04T07:01:16;2.97;;;1.73;;
20758;SDS011;10539;53.686;9.158;2022-11-04T07:03:43;3.50;;;1.70;;
20758;SDS011;10539;53.686;9.158;2022-11-04T07:06:13;2.70;;;1.87;;
20758;SDS011;10539;53.686;9.158;2022-11-04T07:08:39;2.27;;;1.70;;
20758;SDS011;10539;53.686;9.158;2022-11-04T07:11:05;4.30;;;1.70;;
20758;SDS011;10539;53.686;9.158;2022-11-04T07:13:31;2.90;;;1.87;;
20758;SDS011;10539;53.686;9.158;2022-11-04T07:15:58;2.53;;;1.80;;
20758;SDS011;10539;53.686;9.158;2022-11-04T07:18:24;2.40;;;1.70;;
20758;SDS011;10539;53.686;9.158;2022-11-04T07:20:50;2.30;;;1.77;;
20758;SDS011;10539;53.686;9.158;2022-11-04T07:23:16;4.07;;;1.93;;
20758;SDS011;10539;53.686;9.158;2022-11-04T07:25:42;2.63;;;1.70;;
20758;SDS011;10539;53.686;9.158;2022-11-04T07:28:08;3.83;;;1.80;;
20758;SDS011;10539;53.686;9.158;2022-11-04T07:30:33;2.47;;;1.60;;
20758;SDS011;10539;53.686;9.158;2022-11-04T07:32:59;4.70;;;1.50;;
20758;SDS011;10539;53.686;9.158;2022-11-04T07:35:25;3.13;;;1.27;;
20758;SDS011;10539;53.686;9.158;2022-11-04T07:37:51;1.97;;;1.40;;
20758;SDS011;10539;53.686;9.158;2022-11-04T07:40:17;2.83;;;1.50;;
20758;SDS011;10539;53.686;9.158;2022-11-04T07:42:42;2.00;;;1.40;;
20758;SDS011;10539;53.686;9.158;2022-11-04T07:45:08;1.60;;;1.10;;
20758;SDS011;10539;53.686;9.158;2022-11-04T07:47:34;1.60;;;1.17;;
20758;SDS011;10539;53.686;9.158;2022-11-04T07:50:00;2.00;;;1.30;;
20758;SDS011;10539;53.686;9.158;2022-11-04T07:52:26;1.73;;;1.20;;
20758;SDS011;10539;53.686;9.158;2022-11-04T07:54:51;2.20;;;1.20;;
20758;SDS011;10539;53.686;9.158;2022-11-04T07:57:17;2.83;;;0.90;;
20758;SDS011;10539;53.686;9.158;2022-11-04T07:59:43;2.40;;;1.00;;
20758;SDS011;10539;53.686;9.158;2022-11-04T08:02:09;1.97;;;1.37;;
20758;SDS011;10539;53.686;9.158;2022-11-04T08:04:35;3.80;;;1.40;;
20758;SDS011;10539;53.686;9.158;2022-11-04T08:07:01;1.47;;;1.27;;
20758;SDS011;10539;53.686;9.158;2022-11-04T08:09:30;1.63;;;1.10;;
20758;SDS011;10539;53.686;9.158;2022-11-04T08:11:55;1.10;;;1.00;;
20758;SDS011;10539;53.686;9.158;2022-11-04T08:14:21;4.10;;;1.20;;
20758;SDS011;10539;53.686;9.158;2022-11-04T08:16:48;1.30;;;1.10;;
20758;SDS011;10539;53.686;9.158;2022-11-04T08:19:15;1.80;;;1.00;;
20758;SDS011;10539;53.686;9.158;2022-11-04T08:21:41;2.17;;;0.90;;
20758;SDS011;10539;53.686;9.158;2022-11-04T08:24:07;1.43;;;0.70;;
20758;SDS011;10539;53.686;9.158;2022-11-04T08:26:32;1.33;;;1.00;;
20758;SDS011;10539;53.686;9.158;2022-11-04T08:28:58;1.73;;;0.90;;
20758;SDS011;10539;53.686;9.158;2022-11-04T08:31:29;2.17;;;1.03;;
20758;SDS011;10539;53.686;9.158;2022-11-04T08:33:55;2.23;;;1.00;;
20758;SDS011;10539;53.686;9.158;2022-11-04T08:36:26;2.10;;;1.00;;
20758;SDS011;10539;53.686;9.158;2022-11-04T08:38:53;1.90;;;0.60;;
20758;SDS011;10539;53.686;9.158;2022-11-04T08:41:21;5.63;;;1.20;;
20758;SDS011;10539;53.686;9.158;2022-11-04T08:43:49;1.03;;;0.93;;
20758;SDS011;10539;53.686;9.158;2022-11-04T08:46:15;3.33;;;0.90;;
20758;SDS011;10539;53.686;9.158;2022-11-04T08:48:41;0.90;;;0.70;;
20758;SDS011;10539;53.686;9.158;2022-11-04T08:51:15;1.50;;;0.87;;
20758;SDS011;10539;53.686;9.158;2022-11-04T08:53:43;2.50;;;0.70;;
20758;SDS011;10539;53.686;9.158;2022-11-04T08:56:15;1.13;;;0.53;;
20758;SDS011;10539;53.686;9.158;2022-11-04T08:58:43;2.30;;;0.77;;
20758;SDS011;10539;53.686;9.158;2022-11-04T09:01:09;1.90;;;0.70;;
20758;SDS011;10539;53.686;9.158;2022-11-04T09:03:36;2.00;;;0.63;;
20758;SDS011;10539;53.686;9.158;2022-11-04T09:06:06;1.73;;;0.77;;
20758;SDS011;10539;53.686;9.158;2022-11-04T09:08:38;2.03;;;0.73;;
20758;SDS011;10539;53.686;9.158;2022-11-04T09:11:05;2.00;;;0.60;;
20758;SDS011;10539;53.686;9.158;2022-11-04T09:13:32;1.37;;;0.77;;
20758;SDS011;10539;53.686;9.158;2022-11-04T09:15:58;1.43;;;0.60;;
20758;SDS011;10539;53.686;9.158;2022-11-04T09:18:24;0.90;;;0.60;;
20758;SDS011;10539;53.686;9.158;2022-11-04T09:20:49;1.53;;;1.00;;
20758;SDS011;10539;53.686;9.158;2022-11-04T09:23:15;2.63;;;0.63;;
20758;SDS011;10539;53.686;9.158;2022-11-04T09:25:40;2.23;;;0.60;;
20758;SDS011;10539;53.686;9.158;2022-11-04T09:28:06;1.17;;;0.73;;
20758;SDS011;10539;53.686;9.158;2022-11-04T09:30:32;2.07;;;0.63;;
20758;SDS011;10539;53.686;9.158;2022-11-04T09:32:58;1.27;;;0.60;;
20758;SDS011;10539;53.686;9.158;2022-11-04T09:35:24;3.07;;;1.30;;
20758;SDS011;10539;53.686;9.158;2022-11-04T09:37:51;2.70;;;1.00;;
20758;SDS011;10539;53.686;9.158;2022-11-04T09:40:19;4.07;;;0.77;;
20758;SDS011;10539;53.686;9.158;2022-11-04T09:45:38;1.57;;;0.63;;
20758;SDS011;10539;53.686;9.158;2022-11-04T09:48:06;1.47;;;0.70;;
20758;SDS011;10539;53.686;9.158;2022-11-04T09:50:46;3.73;;;0.80;;
20758;SDS011;10539;53.686;9.158;2022-11-04T09:53:16;1.90;;;0.70;;
20758;SDS011;10539;53.686;9.158;2022-11-04T09:55:52;0.97;;;0.70;;
20758;SDS011;10539;53.686;9.158;2022-11-04T09:58:24;1.30;;;0.70;;
20758;SDS011;10539;53.686;9.158;2022-11-04T10:00:56;2.30;;;1.00;;
20758;SDS011;10539;53.686;9.158;2022-11-04T10:04:07;1.27;;;0.80;;
20758;SDS011;10539;53.686;9.158;2022-11-04T10:21:15;2.43;;;0.70;;
20758;SDS011;10539;53.686;9.158;2022-11-04T10:23:56;5.93;;;0.90;;
20758;SDS011;10539;53.686;9.158;2022-11-04T10:26:35;2.00;;;0.90;;
20758;SDS011;10539;53.686;9.158;2022-11-04T10:29:07;5.17;;;0.80;;
20758;SDS011;10539;53.686;9.158;2022-11-04T10:31:38;2.33;;;0.93;;
20758;SDS011;10539;53.686;9.158;2022-11-04T10:34:08;3.87;;;1.10;;
20758;SDS011;10539;53.686;9.158;2022-11-04T10:36:46;1.17;;;0.70;;
20758;SDS011;10539;53.686;9.158;2022-11-04T10:39:15;2.37;;;0.90;;
20758;SDS011;10539;53.686;9.158;2022-11-04T10:41:49;2.87;;;0.83;;
20758;SDS011;10539;53.686;9.158;2022-11-04T10:44:17;2.90;;;0.80;;
20758;SDS011;10539;53.686;9.158;2022-11-04T10:49:50;4.47;;;1.03;;
20758;SDS011;10539;53.686;9.158;2022-11-04T10:52:21;2.50;;;0.97;;
20758;SDS011;10539;53.686;9.158;2022-11-04T10:54:47;2.60;;;0.87;;
20758;SDS011;10539;53.686;9.158;2022-11-04T10:57:21;4.17;;;0.90;;
20758;SDS011;10539;53.686;9.158;2022-11-04T11:05:27;1.47;;;0.90;;
20758;SDS011;10539;53.686;9.158;2022-11-04T11:07:54;2.13;;;0.80;;
20758;SDS011;10539;53.686;9.158;2022-11-04T11:10:59;4.90;;;1.10;;
20758;SDS011;10539;53.686;9.158;2022-11-04T11:13:45;3.90;;;1.00;;
20758;SDS011;10539;53.686;9.158;2022-11-04T11:16:34;6.17;;;1.30;;
20758;SDS011;10539;53.686;9.158;2022-11-04T11:19:20;3.63;;;0.90;;
20758;SDS011;10539;53.686;9.158;2022-11-04T11:22:35;4.37;;;0.93;;
20758;SDS011;10539;53.686;9.158;2022-11-04T11:25:29;6.03;;;1.10;;
20758;SDS011;10539;53.686;9.158;2022-11-04T11:28:22;4.40;;;1.10;;
20758;SDS011;10539;53.686;9.158;2022-11-04T11:31:11;3.43;;;1.10;;
20758;SDS011;10539;53.686;9.158;2022-11-04T11:33:58;2.20;;;0.80;;
20758;SDS011;10539;53.686;9.158;2022-11-04T11:36:42;6.40;;;1.10;;
20758;SDS011;10539;53.686;9.158;2022-11-04T11:39:29;7.60;;;1.23;;
20758;SDS011;10539;53.686;9.158;2022-11-04T11:42:11;3.97;;;0.80;;
20758;SDS011;10539;53.686;9.158;2022-11-04T11:44:52;3.10;;;0.80;;
20758;SDS011;10539;53.686;9.158;2022-11-04T11:47:40;3.93;;;0.73;;
20758;SDS011;10539;53.686;9.158;2022-11-04T11:50:27;3.47;;;0.80;;
20758;SDS011;10539;53.686;9.158;2022-11-04T11:53:15;3.37;;;0.90;;
20758;SDS011;10539;53.686;9.158;2022-11-04T11:56:09;1.70;;;0.50;;
20758;SDS011;10539;53.686;9.158;2022-11-04T11:59:20;6.40;;;0.77;;
20758;SDS011;10539;53.686;9.158;2022-11-04T12:05:31;2.83;;;0.80;;
20758;SDS011;10539;53.686;9.158;2022-11-04T12:14:33;5.97;;;1.00;;
20758;SDS011;10539;53.686;9.158;2022-11-04T12:17:36;4.30;;;0.70;;
20758;SDS011;10539;53.686;9.158;2022-11-04T12:23:45;3.90;;;0.73;;
20758;SDS011;10539;53.686;9.158;2022-11-04T12:30:06;4.53;;;0.83;;
20758;SDS011;10539;53.686;9.158;2022-11-04T12:41:20;7.10;;;0.63;;
20758;SDS011;10539;53.686;9.158;2022-11-04T12:44:17;3.90;;;0.70;;
20758;SDS011;10539;53.686;9.158;2022-11-04T12:57:49;2.63;;;0.63;;
20758;SDS011;10539;53.686;9.158;2022-11-04T13:00:28;5.50;;;0.60;;
20758;SDS011;10539;53.686;9.158;2022-11-04T13:02:59;4.13;;;0.80;;
20758;SDS011;10539;53.686;9.158;2022-11-04T13:05:48;2.90;;;0.60;;
20758;SDS011;10539;53.686;9.158;2022-11-04T13:08:26;3.10;;;0.50;;
20758;SDS011;10539;53.686;9.158;2022-11-04T13:10:58;3.57;;;0.50;;
20758;SDS011;10539;53.686;9.158;2022-11-04T13:13:46;3.97;;;0.67;;
20758;SDS011;10539;53.686;9.158;2022-11-04T13:16:35;5.53;;;0.53;;
20758;SDS011;10539;53.686;9.158;2022-11-04T13:19:06;3.83;;;0.70;;
20758;SDS011;10539;53.686;9.158;2022-11-04T13:21:48;3.17;;;0.90;;
20758;SDS011;10539;53.686;9.158;2022-11-04T13:26:44;6.07;;;0.90;;
20758;SDS011;10539;53.686;9.158;2022-11-04T13:29:11;5.27;;;0.80;;
20758;SDS011;10539;53.686;9.158;2022-11-04T13:31:48;4.53;;;0.90;;
20758;SDS011;10539;53.686;9.158;2022-11-04T13:34:40;3.20;;;0.57;;
20758;SDS011;10539;53.686;9.158;2022-11-04T13:40:17;6.30;;;0.90;;
20758;SDS011;10539;53.686;9.158;2022-11-04T13:43:35;4.63;;;0.80;;
20758;SDS011;10539;53.686;9.158;2022-11-04T13:46:01;2.97;;;0.80;;
20758;SDS011;10539;53.686;9.158;2022-11-04T13:48:29;3.07;;;0.80;;
20758;SDS011;10539;53.686;9.158;2022-11-04T13:51:03;6.93;;;1.00;;
20758;SDS011;10539;53.686;9.158;2022-11-04T13:53:50;3.13;;;0.97;;
20758;SDS011;10539;53.686;9.158;2022-11-04T13:58:58;3.53;;;0.80;;
20758;SDS011;10539;53.686;9.158;2022-11-04T14:01:28;5.50;;;0.70;;
20758;SDS011;10539;53.686;9.158;2022-11-04T14:04:14;4.37;;;0.83;;
20758;SDS011;10539;53.686;9.158;2022-11-04T14:07:00;4.77;;;0.80;;
20758;SDS011;10539;53.686;9.158;2022-11-04T14:14:38;4.43;;;0.80;;
20758;SDS011;10539;53.686;9.158;2022-11-04T14:17:56;5.80;;;0.87;;
20758;SDS011;10539;53.686;9.158;2022-11-04T14:20:00;6.37;;;0.90;;
20758;SDS011;10539;53.686;9.158;2022-11-04T14:22:55;3.10;;;0.67;;
20758;SDS011;10539;53.686;9.158;2022-11-04T14:30:54;7.00;;;0.90;;
20758;SDS011;10539;53.686;9.158;2022-11-04T14:33:39;4.50;;;0.80;;
20758;SDS011;10539;53.686;9.158;2022-11-04T14:36:24;5.37;;;0.80;;
20758;SDS011;10539;53.686;9.158;2022-11-04T14:44:12;6.57;;;1.00;;
20758;SDS011;10539;53.686;9.158;2022-11-04T14:46:45;3.93;;;0.80;;
20758;SDS011;10539;53.686;9.158;2022-11-04T14:49:27;6.03;;;0.90;;
20758;SDS011;10539;53.686;9.158;2022-11-04T14:51:59;5.27;;;0.93;;
20758;SDS011;10539;53.686;9.158;2022-11-04T14:54:25;3.73;;;0.80;;
20758;SDS011;10539;53.686;9.158;2022-11-04T14:57:58;5.17;;;0.90;;
20758;SDS011;10539;53.686;9.158;2022-11-04T14:59:53;4.90;;;0.80;;
20758;SDS011;10539;53.686;9.158;2022-11-04T15:02:20;4.00;;;0.80;;
20758;SDS011;10539;53.686;9.158;2022-11-04T15:04:53;5.10;;;0.80;;
20758;SDS011;10539;53.686;9.158;2022-11-04T15:07:32;8.50;;;1.17;;
20758;SDS011;10539;53.686;9.158;2022-11-04T15:10:00;4.87;;;1.10;;
20758;SDS011;10539;53.686;9.158;2022-11-04T15:12:28;6.70;;;0.87;;
20758;SDS011;10539;53.686;9.158;2022-11-04T15:15:24;5.73;;;0.80;;
20758;SDS011;10539;53.686;9.158;2022-11-04T15:18:08;5.17;;;0.80;;
20758;SDS011;10539;53.686;9.158;2022-11-04T15:20:40;4.93;;;0.90;;
20758;SDS011;10539;53.686;9.158;2022-11-04T15:23:13;6.17;;;0.73;;
20758;SDS011;10539;53.686;9.158;2022-11-04T15:25:46;5.70;;;1.10;;
20758;SDS011;10539;53.686;9.158;2022-11-04T15:28:20;3.90;;;1.17;;
20758;SDS011;10539;53.686;9.158;2022-11-04T15:31:23;8.27;;;0.90;;
20758;SDS011;10539;53.686;9.158;2022-11-04T15:33:48;5.63;;;0.80;;
20758;SDS011;10539;53.686;9.158;2022-11-04T15:39:10;7.53;;;1.00;;
20758;SDS011;10539;53.686;9.158;2022-11-04T15:41:46;7.93;;;1.03;;
20758;SDS011;10539;53.686;9.158;2022-11-04T15:44:33;3.87;;;0.80;;
20758;SDS011;10539;53.686;9.158;2022-11-04T15:47:22;7.93;;;0.87;;
20758;SDS011;10539;53.686;9.158;2022-11-04T15:49:50;8.00;;;1.00;;
20758;SDS011;10539;53.686;9.158;2022-11-04T15:52:18;4.27;;;0.80;;
20758;SDS011;10539;53.686;9.158;2022-11-04T15:54:47;8.87;;;0.97;;
20758;SDS011;10539;53.686;9.158;2022-11-04T16:02:28;4.57;;;1.23;;
20758;SDS011;10539;53.686;9.158;2022-11-04T16:12:50;8.90;;;1.30;;
20758;SDS011;10539;53.686;9.158;2022-11-04T16:15:29;9.93;;;1.20;;
20758;SDS011;10539;53.686;9.158;2022-11-04T16:18:00;6.60;;;1.37;;
20758;SDS011;10539;53.686;9.158;2022-11-04T16:20:28;5.27;;;0.90;;
20758;SDS011;10539;53.686;9.158;2022-11-04T16:22:59;9.20;;;1.37;;
20758;SDS011;10539;53.686;9.158;2022-11-04T16:25:32;8.13;;;1.20;;
20758;SDS011;10539;53.686;9.158;2022-11-04T16:27:59;6.23;;;1.40;;
20758;SDS011;10539;53.686;9.158;2022-11-04T16:30:26;5.77;;;1.20;;
20758;SDS011;10539;53.686;9.158;2022-11-04T16:32:53;10.90;;;1.30;;
20758;SDS011;10539;53.686;9.158;2022-11-04T16:35:30;9.33;;;1.30;;
20758;SDS011;10539;53.686;9.158;2022-11-04T16:37:59;8.03;;;1.20;;
20758;SDS011;10539;53.686;9.158;2022-11-04T16:40:25;4.83;;;1.00;;
20758;SDS011;10539;53.686;9.158;2022-11-04T16:42:51;8.27;;;1.30;;
20758;SDS011;10539;53.686;9.158;2022-11-04T16:47:57;6.40;;;1.30;;
20758;SDS011;10539;53.686;9.158;2022-11-04T16:50:23;8.30;;;1.60;;
20758;SDS011;10539;53.686;9.158;2022-11-04T16:52:50;9.43;;;1.40;;
20758;SDS011;10539;53.686;9.158;2022-11-04T16:55:16;8.93;;;1.67;;
20758;SDS011;10539;53.686;9.158;2022-11-04T16:57:45;5.97;;;1.27;;
20758;SDS011;10539;53.686;9.158;2022-11-04T17:00:17;8.20;;;1.20;;
20758;SDS011;10539;53.686;9.158;2022-11-04T17:02:45;4.37;;;1.10;;
20758;SDS011;10539;53.686;9.158;2022-11-04T17:05:10;4.47;;;1.23;;
20758;SDS011;10539;53.686;9.158;2022-11-04T17:07:37;12.60;;;1.53;;
20758;SDS011;10539;53.686;9.158;2022-11-04T17:10:04;5.87;;;1.00;;
20758;SDS011;10539;53.686;9.158;2022-11-04T17:12:36;11.80;;;1.50;;
20758;SDS011;10539;53.686;9.158;2022-11-04T17:15:02;11.27;;;1.40;;
20758;SDS011;10539;53.686;9.158;2022-11-04T17:17:28;13.17;;;1.50;;
20758;SDS011;10539;53.686;9.158;2022-11-04T17:19:53;5.70;;;1.30;;
20758;SDS011;10539;53.686;9.158;2022-11-04T17:22:19;12.63;;;1.53;;
20758;SDS011;10539;53.686;9.158;2022-11-04T17:24:45;4.93;;;1.23;;
20758;SDS011;10539;53.686;9.158;2022-11-04T17:27:11;5.00;;;1.00;;
20758;SDS011;10539;53.686;9.158;2022-11-04T17:29:37;9.77;;;1.10;;
20758;SDS011;10539;53.686;9.158;2022-11-04T17:32:03;5.37;;;1.40;;
20758;SDS011;10539;53.686;9.158;2022-11-04T17:34:29;6.40;;;1.37;;
20758;SDS011;10539;53.686;9.158;2022-11-04T17:36:55;3.80;;;1.20;;
20758;SDS011;10539;53.686;9.158;2022-11-04T17:39:21;12.20;;;1.90;;
20758;SDS011;10539;53.686;9.158;2022-11-04T17:41:46;10.13;;;1.60;;
20758;SDS011;10539;53.686;9.158;2022-11-04T17:44:34;12.70;;;1.60;;